sensor_id;sensor_type;location;lat;lon;timestamp;P1;durP1;ratioP1;P2;durP2;ratioP2
45420;SDS011;55462;47.042;8.292;2023-02-28T00:01:34;5.43;;;4.93;;
45420;SDS011;55462;47.042;8.292;2023-02-28T00:04:00;8.03;;;6.00;;
45420;SDS011;55462;47.042;8.292;2023-02-28T00:06:25;5.40;;;4.90;;
45420;SDS011;55462;47.042;8.292;2023-02-28T00:08:51;6.20;;;5.53;;
45420;SDS011;55462;47.042;8.292;2023-02-28T00:11:16;6.77;;;6.07;;
45420;SDS011;55462;47.042;8.292;2023-02-28T00:13:43;6.80;;;5.43;;
45420;SDS011;55462;47.042;8.292;2023-02-28T00:16:13;6.87;;;5.47;;
45420;SDS011;55462;47.042;8.292;2023-02-28T00:18:40;6.73;;;5.20;;
45420;SDS011;55462;47.042;8.292;2023-02-28T00:21:06;6.10;;;5.50;;
45420;SDS011;55462;47.042;8.292;2023-02-28T00:23:32;5.60;;;5.10;;
45420;SDS011;55462;47.042;8.292;2023-02-28T00:25:57;7.73;;;5.87;;
45420;SDS011;55462;47.042;8.292;2023-02-28T00:28:23;6.37;;;5.77;;
45420;SDS011;55462;47.042;8.292;2023-02-28T00:30:48;6.23;;;5.13;;
45420;SDS011;55462;47.042;8.292;2023-02-28T00:33:14;6.23;;;5.20;;
45420;SDS011;55462;47.042;8.292;2023-02-28T00:35:40;5.83;;;5.23;;
45420;SDS011;55462;47.042;8.292;2023-02-28T00:38:05;6.17;;;5.33;;
45420;SDS011;55462;47.042;8.292;2023-02-28T00:40:30;6.60;;;5.93;;
45420;SDS011;55462;47.042;8.292;2023-02-28T00:42:56;5.70;;;5.20;;
45420;SDS011;55462;47.042;8.292;2023-02-28T00:45:22;5.90;;;5.30;;
45420;SDS011;55462;47.042;8.292;2023-02-28T00:47:47;5.67;;;5.17;;
45420;SDS011;55462;47.042;8.292;2023-02-28T00:50:15;5.97;;;5.37;;
45420;SDS011;55462;47.042;8.292;2023-02-28T00:52:42;5.80;;;5.30;;
45420;SDS011;55462;47.042;8.292;2023-02-28T00:55:07;5.47;;;4.97;;
45420;SDS011;55462;47.042;8.292;2023-02-28T00:57:33;5.73;;;5.13;;
45420;SDS011;55462;47.042;8.292;2023-02-28T00:59:58;6.03;;;5.20;;
45420;SDS011;55462;47.042;8.292;2023-02-28T01:02:23;5.47;;;4.97;;
45420;SDS011;55462;47.042;8.292;2023-02-28T01:04:48;5.83;;;5.17;;
45420;SDS011;55462;47.042;8.292;2023-02-28T01:07:14;6.57;;;5.27;;
45420;SDS011;55462;47.042;8.292;2023-02-28T01:09:39;5.60;;;5.03;;
45420;SDS011;55462;47.042;8.292;2023-02-28T01:12:06;5.70;;;5.20;;
45420;SDS011;55462;47.042;8.292;2023-02-28T01:14:32;5.77;;;5.27;;
45420;SDS011;55462;47.042;8.292;2023-02-28T01:16:57;5.43;;;4.93;;
45420;SDS011;55462;47.042;8.292;2023-02-28T01:19:23;5.20;;;4.80;;
45420;SDS011;55462;47.042;8.292;2023-02-28T01:21:48;5.60;;;5.10;;
45420;SDS011;55462;47.042;8.292;2023-02-28T01:24:13;6.87;;;6.20;;
45420;SDS011;55462;47.042;8.292;2023-02-28T01:26:39;6.00;;;5.50;;
45420;SDS011;55462;47.042;8.292;2023-02-28T01:29:04;6.37;;;5.23;;
45420;SDS011;55462;47.042;8.292;2023-02-28T01:31:29;5.90;;;5.40;;
45420;SDS011;55462;47.042;8.292;2023-02-28T01:33:54;5.67;;;5.20;;
45420;SDS011;55462;47.042;8.292;2023-02-28T01:36:21;7.17;;;4.90;;
45420;SDS011;55462;47.042;8.292;2023-02-28T01:38:48;7.03;;;5.60;;
45420;SDS011;55462;47.042;8.292;2023-02-28T01:41:21;5.93;;;5.43;;
45420;SDS011;55462;47.042;8.292;2023-02-28T01:47:01;8.50;;;6.17;;
45420;SDS011;55462;47.042;8.292;2023-02-28T01:49:26;5.80;;;5.20;;
45420;SDS011;55462;47.042;8.292;2023-02-28T01:51:52;6.23;;;5.57;;
45420;SDS011;55462;47.042;8.292;2023-02-28T01:54:26;6.07;;;5.27;;
45420;SDS011;55462;47.042;8.292;2023-02-28T01:56:54;6.23;;;4.97;;
45420;SDS011;55462;47.042;8.292;2023-02-28T01:59:22;6.13;;;5.27;;
45420;SDS011;55462;47.042;8.292;2023-02-28T02:01:52;5.93;;;5.43;;
45420;SDS011;55462;47.042;8.292;2023-02-28T02:04:18;5.63;;;5.00;;
45420;SDS011;55462;47.042;8.292;2023-02-28T02:06:46;5.87;;;5.37;;
45420;SDS011;55462;47.042;8.292;2023-02-28T02:09:12;6.07;;;5.57;;
45420;SDS011;55462;47.042;8.292;2023-02-28T02:11:39;5.93;;;5.43;;
45420;SDS011;55462;47.042;8.292;2023-02-28T02:14:11;5.80;;;5.20;;
45420;SDS011;55462;47.042;8.292;2023-02-28T02:22:37;7.40;;;5.77;;
45420;SDS011;55462;47.042;8.292;2023-02-28T02:36:28;6.17;;;5.67;;
45420;SDS011;55462;47.042;8.292;2023-02-28T02:39:36;8.97;;;6.00;;
45420;SDS011;55462;47.042;8.292;2023-02-28T02:41:52;5.90;;;5.40;;
45420;SDS011;55462;47.042;8.292;2023-02-28T02:46:48;6.50;;;5.90;;
45420;SDS011;55462;47.042;8.292;2023-02-28T02:49:24;7.50;;;6.00;;
45420;SDS011;55462;47.042;8.292;2023-02-28T02:51:52;6.43;;;5.83;;
45420;SDS011;55462;47.042;8.292;2023-02-28T02:54:26;7.17;;;6.07;;
45420;SDS011;55462;47.042;8.292;2023-02-28T02:56:53;6.13;;;5.50;;
45420;SDS011;55462;47.042;8.292;2023-02-28T02:59:20;6.43;;;5.83;;
45420;SDS011;55462;47.042;8.292;2023-02-28T03:01:51;7.00;;;6.30;;
45420;SDS011;55462;47.042;8.292;2023-02-28T03:04:19;6.40;;;5.80;;
45420;SDS011;55462;47.042;8.292;2023-02-28T03:06:46;6.10;;;5.60;;
45420;SDS011;55462;47.042;8.292;2023-02-28T03:09:12;7.00;;;6.40;;
45420;SDS011;55462;47.042;8.292;2023-02-28T03:11:37;6.70;;;6.03;;
45420;SDS011;55462;47.042;8.292;2023-02-28T03:24:29;7.83;;;6.40;;
45420;SDS011;55462;47.042;8.292;2023-02-28T03:29:56;6.80;;;6.10;;
45420;SDS011;55462;47.042;8.292;2023-02-28T03:35:02;6.50;;;5.90;;
45420;SDS011;55462;47.042;8.292;2023-02-28T03:37:34;7.83;;;6.30;;
45420;SDS011;55462;47.042;8.292;2023-02-28T03:40:08;6.70;;;6.10;;
45420;SDS011;55462;47.042;8.292;2023-02-28T03:42:39;7.00;;;6.30;;
45420;SDS011;55462;47.042;8.292;2023-02-28T03:45:14;6.73;;;6.03;;
45420;SDS011;55462;47.042;8.292;2023-02-28T03:47:45;7.10;;;6.50;;
45420;SDS011;55462;47.042;8.292;2023-02-28T03:53:02;7.37;;;6.53;;
45420;SDS011;55462;47.042;8.292;2023-02-28T03:55:34;8.07;;;7.10;;
45420;SDS011;55462;47.042;8.292;2023-02-28T03:58:05;7.90;;;7.20;;
45420;SDS011;55462;47.042;8.292;2023-02-28T04:00:38;6.83;;;6.17;;
45420;SDS011;55462;47.042;8.292;2023-02-28T04:03:06;9.50;;;6.80;;
45420;SDS011;55462;47.042;8.292;2023-02-28T04:05:31;6.83;;;6.23;;
45420;SDS011;55462;47.042;8.292;2023-02-28T04:08:04;7.83;;;7.07;;
45420;SDS011;55462;47.042;8.292;2023-02-28T04:10:30;7.23;;;6.53;;
45420;SDS011;55462;47.042;8.292;2023-02-28T04:12:55;6.93;;;6.23;;
45420;SDS011;55462;47.042;8.292;2023-02-28T04:15:20;7.50;;;6.77;;
45420;SDS011;55462;47.042;8.292;2023-02-28T04:17:48;6.83;;;6.23;;
45420;SDS011;55462;47.042;8.292;2023-02-28T04:20:13;6.50;;;5.90;;
45420;SDS011;55462;47.042;8.292;2023-02-28T04:22:38;6.53;;;5.93;;
45420;SDS011;55462;47.042;8.292;2023-02-28T04:25:04;7.67;;;7.00;;
45420;SDS011;55462;47.042;8.292;2023-02-28T04:27:30;7.50;;;6.80;;
45420;SDS011;55462;47.042;8.292;2023-02-28T04:29:55;7.63;;;6.93;;
45420;SDS011;55462;47.042;8.292;2023-02-28T04:32:21;7.30;;;6.70;;
45420;SDS011;55462;47.042;8.292;2023-02-28T04:34:46;6.87;;;6.20;;
45420;SDS011;55462;47.042;8.292;2023-02-28T04:37:11;7.63;;;6.90;;
45420;SDS011;55462;47.042;8.292;2023-02-28T04:39:37;7.47;;;6.73;;
45420;SDS011;55462;47.042;8.292;2023-02-28T04:42:03;7.10;;;6.40;;
45420;SDS011;55462;47.042;8.292;2023-02-28T04:44:28;6.80;;;6.20;;
45420;SDS011;55462;47.042;8.292;2023-02-28T04:46:53;6.90;;;6.27;;
45420;SDS011;55462;47.042;8.292;2023-02-28T04:49:19;7.60;;;6.80;;
45420;SDS011;55462;47.042;8.292;2023-02-28T04:51:44;7.53;;;6.80;;
45420;SDS011;55462;47.042;8.292;2023-02-28T04:54:09;7.50;;;6.80;;
45420;SDS011;55462;47.042;8.292;2023-02-28T04:56:35;7.63;;;6.93;;
45420;SDS011;55462;47.042;8.292;2023-02-28T04:59:00;8.20;;;7.40;;
45420;SDS011;55462;47.042;8.292;2023-02-28T05:03:52;7.83;;;6.60;;
45420;SDS011;55462;47.042;8.292;2023-02-28T05:06:19;7.23;;;6.53;;
45420;SDS011;55462;47.042;8.292;2023-02-28T05:08:45;7.70;;;6.90;;
45420;SDS011;55462;47.042;8.292;2023-02-28T05:11:17;7.40;;;6.80;;
45420;SDS011;55462;47.042;8.292;2023-02-28T05:13:43;7.40;;;6.70;;
45420;SDS011;55462;47.042;8.292;2023-02-28T05:16:08;8.53;;;7.63;;
45420;SDS011;55462;47.042;8.292;2023-02-28T05:18:33;7.33;;;6.63;;
45420;SDS011;55462;47.042;8.292;2023-02-28T05:20:59;7.43;;;6.67;;
45420;SDS011;55462;47.042;8.292;2023-02-28T05:23:27;7.13;;;6.53;;
45420;SDS011;55462;47.042;8.292;2023-02-28T05:25:52;7.07;;;6.47;;
45420;SDS011;55462;47.042;8.292;2023-02-28T05:28:17;7.23;;;6.63;;
45420;SDS011;55462;47.042;8.292;2023-02-28T05:30:44;7.93;;;7.23;;
45420;SDS011;55462;47.042;8.292;2023-02-28T05:33:10;7.70;;;6.57;;
45420;SDS011;55462;47.042;8.292;2023-02-28T05:35:37;7.73;;;7.03;;
45420;SDS011;55462;47.042;8.292;2023-02-28T05:38:03;7.57;;;6.87;;
45420;SDS011;55462;47.042;8.292;2023-02-28T05:40:29;9.00;;;7.30;;
45420;SDS011;55462;47.042;8.292;2023-02-28T05:42:54;7.80;;;7.10;;
45420;SDS011;55462;47.042;8.292;2023-02-28T05:45:19;7.40;;;6.80;;
45420;SDS011;55462;47.042;8.292;2023-02-28T05:47:44;8.37;;;7.33;;
45420;SDS011;55462;47.042;8.292;2023-02-28T05:50:10;7.50;;;6.77;;
45420;SDS011;55462;47.042;8.292;2023-02-28T05:52:36;8.17;;;7.47;;
45420;SDS011;55462;47.042;8.292;2023-02-28T05:55:02;7.93;;;7.23;;
45420;SDS011;55462;47.042;8.292;2023-02-28T05:57:27;7.33;;;6.60;;
45420;SDS011;55462;47.042;8.292;2023-02-28T05:59:53;7.20;;;6.57;;
45420;SDS011;55462;47.042;8.292;2023-02-28T06:02:18;7.87;;;6.97;;
45420;SDS011;55462;47.042;8.292;2023-02-28T06:04:44;7.53;;;6.83;;
45420;SDS011;55462;47.042;8.292;2023-02-28T06:07:10;7.00;;;6.30;;
45420;SDS011;55462;47.042;8.292;2023-02-28T06:09:35;8.27;;;7.43;;
45420;SDS011;55462;47.042;8.292;2023-02-28T06:12:02;7.83;;;6.73;;
45420;SDS011;55462;47.042;8.292;2023-02-28T06:14:30;7.93;;;7.23;;
45420;SDS011;55462;47.042;8.292;2023-02-28T06:16:56;7.43;;;6.73;;
45420;SDS011;55462;47.042;8.292;2023-02-28T06:19:22;7.33;;;6.57;;
45420;SDS011;55462;47.042;8.292;2023-02-28T06:21:50;8.07;;;7.23;;
45420;SDS011;55462;47.042;8.292;2023-02-28T06:24:17;6.87;;;6.20;;
45420;SDS011;55462;47.042;8.292;2023-02-28T06:26:42;7.57;;;6.53;;
45420;SDS011;55462;47.042;8.292;2023-02-28T06:29:08;7.57;;;6.87;;
45420;SDS011;55462;47.042;8.292;2023-02-28T06:31:33;7.33;;;6.60;;
45420;SDS011;55462;47.042;8.292;2023-02-28T06:33:59;8.13;;;7.33;;
45420;SDS011;55462;47.042;8.292;2023-02-28T06:36:24;7.57;;;6.77;;
45420;SDS011;55462;47.042;8.292;2023-02-28T06:38:49;7.07;;;6.47;;
45420;SDS011;55462;47.042;8.292;2023-02-28T06:41:19;14.57;;;7.00;;
45420;SDS011;55462;47.042;8.292;2023-02-28T06:43:45;7.00;;;6.40;;
45420;SDS011;55462;47.042;8.292;2023-02-28T06:46:12;7.37;;;6.30;;
45420;SDS011;55462;47.042;8.292;2023-02-28T06:48:38;6.77;;;6.03;;
45420;SDS011;55462;47.042;8.292;2023-02-28T06:51:05;7.00;;;6.40;;
45420;SDS011;55462;47.042;8.292;2023-02-28T06:53:34;6.93;;;6.23;;
45420;SDS011;55462;47.042;8.292;2023-02-28T06:56:03;6.80;;;6.30;;
45420;SDS011;55462;47.042;8.292;2023-02-28T06:58:31;7.27;;;6.67;;
45420;SDS011;55462;47.042;8.292;2023-02-28T07:00:56;7.80;;;7.10;;
45420;SDS011;55462;47.042;8.292;2023-02-28T07:03:21;7.67;;;6.97;;
45420;SDS011;55462;47.042;8.292;2023-02-28T07:05:48;7.00;;;6.07;;
45420;SDS011;55462;47.042;8.292;2023-02-28T07:08:13;8.10;;;6.83;;
45420;SDS011;55462;47.042;8.292;2023-02-28T07:10:38;7.30;;;6.70;;
45420;SDS011;55462;47.042;8.292;2023-02-28T07:13:04;8.33;;;6.90;;
45420;SDS011;55462;47.042;8.292;2023-02-28T07:15:30;7.97;;;6.83;;
45420;SDS011;55462;47.042;8.292;2023-02-28T07:17:55;6.90;;;6.30;;
45420;SDS011;55462;47.042;8.292;2023-02-28T07:20:21;7.80;;;6.30;;
45420;SDS011;55462;47.042;8.292;2023-02-28T07:22:47;6.23;;;5.77;;
45420;SDS011;55462;47.042;8.292;2023-02-28T07:25:20;6.90;;;6.30;;
45420;SDS011;55462;47.042;8.292;2023-02-28T07:27:46;6.70;;;6.03;;
45420;SDS011;55462;47.042;8.292;2023-02-28T07:30:11;7.80;;;6.97;;
45420;SDS011;55462;47.042;8.292;2023-02-28T07:32:37;7.47;;;6.77;;
45420;SDS011;55462;47.042;8.292;2023-02-28T07:35:02;7.87;;;7.10;;
45420;SDS011;55462;47.042;8.292;2023-02-28T07:37:28;7.30;;;6.70;;
45420;SDS011;55462;47.042;8.292;2023-02-28T07:39:56;7.03;;;6.43;;
45420;SDS011;55462;47.042;8.292;2023-02-28T07:42:21;7.70;;;6.70;;
45420;SDS011;55462;47.042;8.292;2023-02-28T07:44:47;9.57;;;7.03;;
45420;SDS011;55462;47.042;8.292;2023-02-28T07:47:12;8.07;;;7.37;;
45420;SDS011;55462;47.042;8.292;2023-02-28T07:49:38;7.03;;;6.43;;
45420;SDS011;55462;47.042;8.292;2023-02-28T07:52:04;8.53;;;7.10;;
45420;SDS011;55462;47.042;8.292;2023-02-28T07:54:30;7.67;;;6.97;;
45420;SDS011;55462;47.042;8.292;2023-02-28T07:56:55;7.73;;;6.93;;
45420;SDS011;55462;47.042;8.292;2023-02-28T07:59:21;7.43;;;6.73;;
45420;SDS011;55462;47.042;8.292;2023-02-28T08:01:46;7.90;;;7.20;;
45420;SDS011;55462;47.042;8.292;2023-02-28T08:04:11;7.77;;;6.83;;
45420;SDS011;55462;47.042;8.292;2023-02-28T08:06:37;7.73;;;7.03;;
45420;SDS011;55462;47.042;8.292;2023-02-28T08:09:02;6.80;;;6.20;;
45420;SDS011;55462;47.042;8.292;2023-02-28T08:11:28;7.70;;;6.90;;
45420;SDS011;55462;47.042;8.292;2023-02-28T08:13:54;11.20;;;7.27;;
45420;SDS011;55462;47.042;8.292;2023-02-28T08:16:19;7.57;;;6.87;;
45420;SDS011;55462;47.042;8.292;2023-02-28T08:18:47;7.87;;;7.07;;
45420;SDS011;55462;47.042;8.292;2023-02-28T08:21:14;10.77;;;6.87;;
45420;SDS011;55462;47.042;8.292;2023-02-28T08:23:39;7.57;;;6.83;;
45420;SDS011;55462;47.042;8.292;2023-02-28T08:26:04;7.77;;;6.97;;
45420;SDS011;55462;47.042;8.292;2023-02-28T08:28:30;7.07;;;6.33;;
45420;SDS011;55462;47.042;8.292;2023-02-28T08:30:55;8.87;;;7.57;;
45420;SDS011;55462;47.042;8.292;2023-02-28T08:33:21;8.90;;;7.60;;
45420;SDS011;55462;47.042;8.292;2023-02-28T08:35:47;8.37;;;7.60;;
45420;SDS011;55462;47.042;8.292;2023-02-28T08:38:13;7.97;;;7.20;;
45420;SDS011;55462;47.042;8.292;2023-02-28T08:40:38;7.93;;;6.90;;
45420;SDS011;55462;47.042;8.292;2023-02-28T08:43:03;8.37;;;7.20;;
45420;SDS011;55462;47.042;8.292;2023-02-28T08:45:29;7.83;;;7.10;;
45420;SDS011;55462;47.042;8.292;2023-02-28T08:47:54;8.17;;;7.37;;
45420;SDS011;55462;47.042;8.292;2023-02-28T08:50:20;7.07;;;6.47;;
45420;SDS011;55462;47.042;8.292;2023-02-28T08:52:45;8.00;;;7.20;;
45420;SDS011;55462;47.042;8.292;2023-02-28T08:55:11;7.87;;;7.17;;
45420;SDS011;55462;47.042;8.292;2023-02-28T08:57:36;7.50;;;6.87;;
45420;SDS011;55462;47.042;8.292;2023-02-28T09:00:02;7.70;;;6.90;;
45420;SDS011;55462;47.042;8.292;2023-02-28T09:02:29;7.57;;;6.87;;
45420;SDS011;55462;47.042;8.292;2023-02-28T09:04:55;7.43;;;6.73;;
45420;SDS011;55462;47.042;8.292;2023-02-28T09:07:20;7.30;;;6.67;;
45420;SDS011;55462;47.042;8.292;2023-02-28T09:09:46;8.90;;;7.57;;
45420;SDS011;55462;47.042;8.292;2023-02-28T09:12:24;8.20;;;7.50;;
45420;SDS011;55462;47.042;8.292;2023-02-28T09:14:50;8.07;;;7.27;;
45420;SDS011;55462;47.042;8.292;2023-02-28T09:17:15;7.57;;;6.87;;
45420;SDS011;55462;47.042;8.292;2023-02-28T09:19:41;7.73;;;7.00;;
45420;SDS011;55462;47.042;8.292;2023-02-28T09:22:07;8.27;;;7.37;;
45420;SDS011;55462;47.042;8.292;2023-02-28T09:24:33;9.03;;;7.83;;
45420;SDS011;55462;47.042;8.292;2023-02-28T09:26:58;8.10;;;7.40;;
45420;SDS011;55462;47.042;8.292;2023-02-28T09:29:23;8.20;;;7.40;;
45420;SDS011;55462;47.042;8.292;2023-02-28T09:31:49;7.93;;;7.23;;
45420;SDS011;55462;47.042;8.292;2023-02-28T09:34:15;8.60;;;7.80;;
45420;SDS011;55462;47.042;8.292;2023-02-28T09:36:40;8.50;;;7.70;;
45420;SDS011;55462;47.042;8.292;2023-02-28T09:39:06;8.47;;;7.67;;
45420;SDS011;55462;47.042;8.292;2023-02-28T09:41:36;8.53;;;7.80;;
45420;SDS011;55462;47.042;8.292;2023-02-28T09:44:05;8.50;;;7.70;;
45420;SDS011;55462;47.042;8.292;2023-02-28T09:46:34;8.20;;;7.40;;
45420;SDS011;55462;47.042;8.292;2023-02-28T09:49:05;11.27;;;8.20;;
45420;SDS011;55462;47.042;8.292;2023-02-28T09:51:34;10.37;;;7.97;;
45420;SDS011;55462;47.042;8.292;2023-02-28T09:54:04;9.17;;;8.23;;
45420;SDS011;55462;47.042;8.292;2023-02-28T09:56:36;8.90;;;8.07;;
45420;SDS011;55462;47.042;8.292;2023-02-28T10:01:46;9.23;;;7.93;;
45420;SDS011;55462;47.042;8.292;2023-02-28T10:07:00;9.27;;;7.97;;
45420;SDS011;55462;47.042;8.292;2023-02-28T10:09:32;9.17;;;8.03;;
45420;SDS011;55462;47.042;8.292;2023-02-28T10:12:00;8.80;;;8.00;;
45420;SDS011;55462;47.042;8.292;2023-02-28T10:14:29;9.07;;;8.30;;
45420;SDS011;55462;47.042;8.292;2023-02-28T10:17:01;9.03;;;8.20;;
45420;SDS011;55462;47.042;8.292;2023-02-28T10:19:42;9.47;;;8.57;;
45420;SDS011;55462;47.042;8.292;2023-02-28T10:22:22;9.43;;;8.43;;
45420;SDS011;55462;47.042;8.292;2023-02-28T10:24:53;10.27;;;8.47;;
45420;SDS011;55462;47.042;8.292;2023-02-28T10:27:22;9.17;;;8.27;;
45420;SDS011;55462;47.042;8.292;2023-02-28T10:29:54;9.30;;;8.40;;
45420;SDS011;55462;47.042;8.292;2023-02-28T10:32:22;9.80;;;8.90;;
45420;SDS011;55462;47.042;8.292;2023-02-28T10:34:51;9.07;;;7.93;;
45420;SDS011;55462;47.042;8.292;2023-02-28T10:37:17;9.07;;;7.93;;
45420;SDS011;55462;47.042;8.292;2023-02-28T10:39:45;9.63;;;8.60;;
45420;SDS011;55462;47.042;8.292;2023-02-28T10:42:32;9.70;;;8.70;;
45420;SDS011;55462;47.042;8.292;2023-02-28T10:47:37;9.17;;;8.33;;
45420;SDS011;55462;47.042;8.292;2023-02-28T10:55:35;8.80;;;7.90;;
45420;SDS011;55462;47.042;8.292;2023-02-28T10:58:01;9.70;;;8.27;;
45420;SDS011;55462;47.042;8.292;2023-02-28T11:00:32;8.87;;;8.07;;
45420;SDS011;55462;47.042;8.292;2023-02-28T11:02:58;9.60;;;8.60;;
45420;SDS011;55462;47.042;8.292;2023-02-28T11:05:31;9.77;;;8.77;;
45420;SDS011;55462;47.042;8.292;2023-02-28T11:08:01;9.27;;;8.33;;
45420;SDS011;55462;47.042;8.292;2023-02-28T11:10:31;9.57;;;8.67;;
45420;SDS011;55462;47.042;8.292;2023-02-28T11:12:59;11.40;;;8.83;;
45420;SDS011;55462;47.042;8.292;2023-02-28T11:15:29;9.00;;;8.20;;
45420;SDS011;55462;47.042;8.292;2023-02-28T11:17:57;8.80;;;7.93;;
45420;SDS011;55462;47.042;8.292;2023-02-28T11:20:42;8.77;;;7.97;;
45420;SDS011;55462;47.042;8.292;2023-02-28T11:23:13;8.20;;;7.50;;
45420;SDS011;55462;47.042;8.292;2023-02-28T11:25:39;10.23;;;7.93;;
45420;SDS011;55462;47.042;8.292;2023-02-28T11:28:05;9.97;;;7.63;;
45420;SDS011;55462;47.042;8.292;2023-02-28T11:30:38;8.97;;;8.07;;
45420;SDS011;55462;47.042;8.292;2023-02-28T11:35:55;9.60;;;8.10;;
45420;SDS011;55462;47.042;8.292;2023-02-28T11:38:24;9.37;;;8.47;;
45420;SDS011;55462;47.042;8.292;2023-02-28T11:46:40;8.33;;;7.60;;
45420;SDS011;55462;47.042;8.292;2023-02-28T11:49:16;8.97;;;8.07;;
45420;SDS011;55462;47.042;8.292;2023-02-28T11:52:10;9.07;;;8.17;;
45420;SDS011;55462;47.042;8.292;2023-02-28T12:02:42;9.07;;;8.07;;
45420;SDS011;55462;47.042;8.292;2023-02-28T12:05:36;8.77;;;7.87;;
45420;SDS011;55462;47.042;8.292;2023-02-28T12:11:04;9.13;;;8.33;;
45420;SDS011;55462;47.042;8.292;2023-02-28T12:13:57;8.97;;;8.17;;
45420;SDS011;55462;47.042;8.292;2023-02-28T12:19:18;8.73;;;7.93;;
45420;SDS011;55462;47.042;8.292;2023-02-28T12:21:53;9.63;;;8.63;;
45420;SDS011;55462;47.042;8.292;2023-02-28T12:26:51;9.00;;;8.20;;
45420;SDS011;55462;47.042;8.292;2023-02-28T12:37:41;8.10;;;7.40;;
45420;SDS011;55462;47.042;8.292;2023-02-28T12:40:21;9.30;;;8.40;;
45420;SDS011;55462;47.042;8.292;2023-02-28T12:42:51;9.27;;;8.27;;
45420;SDS011;55462;47.042;8.292;2023-02-28T12:47:44;9.17;;;8.13;;
45420;SDS011;55462;47.042;8.292;2023-02-28T12:50:13;9.10;;;8.30;;
45420;SDS011;55462;47.042;8.292;2023-02-28T12:52:47;8.30;;;7.50;;
45420;SDS011;55462;47.042;8.292;2023-02-28T13:01:10;9.67;;;8.67;;
45420;SDS011;55462;47.042;8.292;2023-02-28T13:03:52;12.40;;;8.27;;
45420;SDS011;55462;47.042;8.292;2023-02-28T13:06:33;8.87;;;7.97;;
45420;SDS011;55462;47.042;8.292;2023-02-28T13:09:08;8.70;;;8.00;;
45420;SDS011;55462;47.042;8.292;2023-02-28T13:11:48;8.80;;;7.90;;
45420;SDS011;55462;47.042;8.292;2023-02-28T13:14:36;9.43;;;8.63;;
45420;SDS011;55462;47.042;8.292;2023-02-28T13:19:43;9.20;;;8.30;;
45420;SDS011;55462;47.042;8.292;2023-02-28T13:24:52;9.50;;;8.60;;
45420;SDS011;55462;47.042;8.292;2023-02-28T13:29:50;9.17;;;8.37;;
45420;SDS011;55462;47.042;8.292;2023-02-28T13:32:28;8.80;;;8.00;;
45420;SDS011;55462;47.042;8.292;2023-02-28T13:39:47;8.90;;;8.00;;
45420;SDS011;55462;47.042;8.292;2023-02-28T13:47:36;9.57;;;8.67;;
45420;SDS011;55462;47.042;8.292;2023-02-28T14:06:48;11.90;;;10.70;;
45420;SDS011;55462;47.042;8.292;2023-02-28T14:09:18;11.30;;;10.13;;
45420;SDS011;55462;47.042;8.292;2023-02-28T14:11:50;8.50;;;7.73;;
45420;SDS011;55462;47.042;8.292;2023-02-28T14:14:53;10.03;;;9.13;;
45420;SDS011;55462;47.042;8.292;2023-02-28T14:17:05;10.57;;;9.57;;
45420;SDS011;55462;47.042;8.292;2023-02-28T14:19:34;8.70;;;7.80;;
45420;SDS011;55462;47.042;8.292;2023-02-28T14:38:25;9.17;;;8.27;;
45420;SDS011;55462;47.042;8.292;2023-02-28T14:40:55;9.63;;;8.67;;
45420;SDS011;55462;47.042;8.292;2023-02-28T14:43:23;10.23;;;8.30;;
45420;SDS011;55462;47.042;8.292;2023-02-28T14:45:52;10.00;;;9.00;;
45420;SDS011;55462;47.042;8.292;2023-02-28T14:48:20;9.43;;;8.53;;
45420;SDS011;55462;47.042;8.292;2023-02-28T14:50:50;9.70;;;8.57;;
45420;SDS011;55462;47.042;8.292;2023-02-28T14:53:18;9.63;;;8.60;;
45420;SDS011;55462;47.042;8.292;2023-02-28T14:55:45;9.17;;;8.37;;
45420;SDS011;55462;47.042;8.292;2023-02-28T14:58:21;9.00;;;8.10;;
45420;SDS011;55462;47.042;8.292;2023-02-28T15:00:47;10.07;;;9.17;;
45420;SDS011;55462;47.042;8.292;2023-02-28T15:05:58;8.73;;;7.87;;
45420;SDS011;55462;47.042;8.292;2023-02-28T15:08:25;10.67;;;9.67;;
45420;SDS011;55462;47.042;8.292;2023-02-28T15:10:57;8.73;;;7.93;;
45420;SDS011;55462;47.042;8.292;2023-02-28T15:13:58;9.60;;;8.70;;
45420;SDS011;55462;47.042;8.292;2023-02-28T15:16:22;14.50;;;8.90;;
45420;SDS011;55462;47.042;8.292;2023-02-28T15:19:00;9.23;;;8.07;;
45420;SDS011;55462;47.042;8.292;2023-02-28T15:21:33;10.43;;;7.87;;
45420;SDS011;55462;47.042;8.292;2023-02-28T15:24:04;10.30;;;8.50;;
45420;SDS011;55462;47.042;8.292;2023-02-28T15:26:33;10.13;;;8.37;;
45420;SDS011;55462;47.042;8.292;2023-02-28T15:29:01;10.60;;;9.63;;
45420;SDS011;55462;47.042;8.292;2023-02-28T15:31:41;10.30;;;8.63;;
45420;SDS011;55462;47.042;8.292;2023-02-28T15:34:20;10.07;;;9.10;;
45420;SDS011;55462;47.042;8.292;2023-02-28T15:36:59;10.00;;;9.00;;
45420;SDS011;55462;47.042;8.292;2023-02-28T15:39:26;9.30;;;8.40;;
45420;SDS011;55462;47.042;8.292;2023-02-28T15:41:55;10.20;;;9.20;;
45420;SDS011;55462;47.042;8.292;2023-02-28T15:44:35;9.90;;;8.90;;
45420;SDS011;55462;47.042;8.292;2023-02-28T15:47:11;9.40;;;8.50;;
45420;SDS011;55462;47.042;8.292;2023-02-28T15:49:48;10.00;;;8.97;;
45420;SDS011;55462;47.042;8.292;2023-02-28T15:52:22;10.63;;;9.57;;
45420;SDS011;55462;47.042;8.292;2023-02-28T15:54:51;9.27;;;8.47;;
45420;SDS011;55462;47.042;8.292;2023-02-28T15:57:21;10.27;;;9.13;;
45420;SDS011;55462;47.042;8.292;2023-02-28T15:59:50;9.00;;;8.10;;
45420;SDS011;55462;47.042;8.292;2023-02-28T16:02:21;10.23;;;9.33;;
45420;SDS011;55462;47.042;8.292;2023-02-28T16:05:02;11.03;;;8.80;;
45420;SDS011;55462;47.042;8.292;2023-02-28T16:07:34;9.93;;;9.00;;
45420;SDS011;55462;47.042;8.292;2023-02-28T16:10:07;9.83;;;8.83;;
45420;SDS011;55462;47.042;8.292;2023-02-28T16:12:34;9.80;;;8.90;;
45420;SDS011;55462;47.042;8.292;2023-02-28T16:15:01;9.43;;;8.63;;
45420;SDS011;55462;47.042;8.292;2023-02-28T16:17:32;9.63;;;8.83;;
45420;SDS011;55462;47.042;8.292;2023-02-28T16:19:59;9.70;;;8.80;;
45420;SDS011;55462;47.042;8.292;2023-02-28T16:22:24;9.83;;;8.83;;
45420;SDS011;55462;47.042;8.292;2023-02-28T16:24:50;9.63;;;8.70;;
45420;SDS011;55462;47.042;8.292;2023-02-28T16:27:17;9.53;;;8.53;;
45420;SDS011;55462;47.042;8.292;2023-02-28T16:29:47;11.67;;;9.60;;
45420;SDS011;55462;47.042;8.292;2023-02-28T16:32:16;9.97;;;8.97;;
45420;SDS011;55462;47.042;8.292;2023-02-28T16:34:42;10.10;;;9.20;;
45420;SDS011;55462;47.042;8.292;2023-02-28T16:37:15;9.83;;;8.93;;
45420;SDS011;55462;47.042;8.292;2023-02-28T16:39:42;10.20;;;9.20;;
45420;SDS011;55462;47.042;8.292;2023-02-28T16:42:16;9.60;;;8.80;;
45420;SDS011;55462;47.042;8.292;2023-02-28T16:44:47;10.40;;;9.40;;
45420;SDS011;55462;47.042;8.292;2023-02-28T16:47:12;11.23;;;9.50;;
45420;SDS011;55462;47.042;8.292;2023-02-28T16:49:38;10.40;;;9.33;;
45420;SDS011;55462;47.042;8.292;2023-02-28T16:52:04;10.07;;;9.17;;
45420;SDS011;55462;47.042;8.292;2023-02-28T16:54:30;9.60;;;8.77;;
45420;SDS011;55462;47.042;8.292;2023-02-28T16:56:56;9.90;;;9.00;;
45420;SDS011;55462;47.042;8.292;2023-02-28T16:59:22;10.03;;;8.63;;
45420;SDS011;55462;47.042;8.292;2023-02-28T17:01:49;10.30;;;9.30;;
45420;SDS011;55462;47.042;8.292;2023-02-28T17:04:15;9.90;;;9.00;;
45420;SDS011;55462;47.042;8.292;2023-02-28T17:06:40;10.57;;;9.53;;
45420;SDS011;55462;47.042;8.292;2023-02-28T17:09:08;10.67;;;9.60;;
45420;SDS011;55462;47.042;8.292;2023-02-28T17:11:40;9.30;;;8.50;;
45420;SDS011;55462;47.042;8.292;2023-02-28T17:14:05;10.03;;;9.13;;
45420;SDS011;55462;47.042;8.292;2023-02-28T17:16:32;10.30;;;9.30;;
45420;SDS011;55462;47.042;8.292;2023-02-28T17:18:59;10.10;;;9.20;;
45420;SDS011;55462;47.042;8.292;2023-02-28T17:21:26;10.03;;;9.03;;
45420;SDS011;55462;47.042;8.292;2023-02-28T17:23:52;11.20;;;10.00;;
45420;SDS011;55462;47.042;8.292;2023-02-28T17:26:18;10.30;;;9.30;;